Time;durP1;ratioP1;P1;durP2;ratioP2;P2;SDS_P1;SDS_P2;PMS_P1;PMS_P2;Temp;Humidity;BMP_temperature;BMP_pressure;BME280_temperature;BME280_humidity;BME280_pressure;Samples;Min_cycle;Max_cycle;Signal;HPM_P1;HPM_P2
2022/05/17 00:02:17;;;;;;;27.65;18.83;;;16.20;99.90;;;14.29;100.00;100972.94;4955606;28;20688;-90
2022/05/17 00:04:44;;;;;;;28.70;18.30;;;16.20;99.90;;;14.24;100.00;100976.28;4948522;29;20070;-89
2022/05/17 00:07:12;;;;;;;25.63;18.52;;;16.10;99.90;;;14.26;100.00;100979.69;4942974;29;20126;-88
2022/05/17 00:09:40;;;;;;;20.50;14.27;;;16.10;99.90;;;14.19;100.00;100980.66;4949914;29;20562;-89
2022/05/17 00:12:09;;;;;;;30.75;16.40;;;16.10;99.90;;;14.21;100.00;100970.38;4949033;28;20412;-89
2022/05/17 00:14:36;;;;;;;25.95;16.58;;;16.00;99.90;;;14.14;100.00;100974.94;4941720;29;20504;-89
2022/05/17 00:17:05;;;;;;;26.17;15.65;;;16.00;99.90;;;14.12;100.00;100977.00;4948157;28;20047;-89
2022/05/17 00:19:33;;;;;;;23.13;14.70;;;15.90;99.90;;;14.08;100.00;100971.09;4949932;29;20040;-88
2022/05/17 00:22:00;;;;;;;28.25;17.52;;;16.00;99.90;;;14.05;100.00;100974.19;4945023;29;20055;-88
2022/05/17 00:24:28;;;;;;;23.52;16.55;;;15.90;99.90;;;14.00;100.00;100974.81;4948877;29;20285;-88
2022/05/17 00:26:57;;;;;;;27.15;16.75;;;15.90;99.90;;;13.97;100.00;100964.22;4949066;28;20046;-89
2022/05/17 00:29:25;;;;;;;30.65;18.55;;;15.90;99.90;;;13.94;100.00;100972.84;4955520;28;20055;-89
2022/05/17 00:31:52;;;;;;;26.83;16.50;;;15.90;99.90;;;13.93;100.00;100962.94;4948756;29;20583;-89
2022/05/17 00:34:20;;;;;;;43.60;17.42;;;15.90;99.90;;;13.91;100.00;100970.50;4950103;28;20048;-88
2022/05/17 00:36:47;;;;;;;131.73;19.52;;;15.90;99.90;;;13.92;100.00;100954.91;4945553;29;20057;-89
2022/05/17 00:39:15;;;;;;;41.83;16.95;;;15.80;99.90;;;13.90;100.00;100968.81;4943622;29;20150;-89
2022/05/17 00:41:42;;;;;;;113.30;18.02;;;15.90;99.90;;;13.91;100.00;100962.28;4945243;29;20051;-89
2022/05/17 00:47:00;;;;;;;44.10;15.27;;;15.80;99.90;;;13.86;100.00;100964.78;4951354;29;20067;-89
2022/05/17 00:49:33;;;;;;;35.90;15.02;;;15.80;99.90;;;13.86;100.00;100964.78;4949974;29;20137;-87
2022/05/17 00:52:10;;;;;;;20.38;12.88;;;15.80;99.90;;;13.81;100.00;100959.88;4951432;29;20067;-88
2022/05/17 00:54:39;;;;;;;27.77;13.52;;;15.80;99.90;;;13.79;100.00;100958.41;4950198;29;20192;-89
2022/05/17 00:57:13;;;;;;;38.22;15.57;;;15.70;99.90;;;13.78;100.00;100963.00;4950788;29;20043;-88
2022/05/17 00:59:41;;;;;;;25.10;13.57;;;15.70;99.90;;;13.75;100.00;100959.84;4952477;29;20752;-89
2022/05/17 01:02:11;;;;;;;28.25;12.65;;;15.70;99.90;;;13.72;100.00;100955.56;4952478;29;20093;-89
2022/05/17 01:04:39;;;;;;;36.72;14.93;;;15.70;99.90;;;13.67;100.00;100958.91;4947451;28;20039;-90
2022/05/17 01:07:11;;;;;;;46.40;15.82;;;15.60;99.90;;;13.64;100.00;100955.72;4953597;28;20122;-89
2022/05/17 01:09:38;;;;;;;24.08;13.32;;;15.60;99.90;;;13.58;100.00;100960.06;4948576;29;20138;-89
2022/05/17 01:12:07;;;;;;;32.67;14.63;;;15.60;99.90;;;13.53;100.00;100956.22;4937359;29;20043;-89
2022/05/17 01:17:21;;;;;;;37.88;13.73;;;15.50;99.90;;;13.49;100.00;100953.00;4950357;29;20054;-89
2022/05/17 01:19:48;;;;;;;55.90;13.80;;;15.50;99.90;;;13.44;100.00;100956.34;4952057;29;20508;-89
2022/05/17 01:22:18;;;;;;;60.88;14.55;;;15.50;99.90;;;13.42;100.00;100960.28;4959651;28;20575;-89
2022/05/17 01:24:45;;;;;;;60.22;12.52;;;15.50;99.90;;;13.41;100.00;100959.44;4951107;29;20423;-89
2022/05/17 01:27:18;;;;;;;50.28;12.75;;;15.50;99.90;;;13.42;100.00;100954.81;4947337;29;20063;-90
2022/05/17 01:29:49;;;;;;;61.70;12.82;;;15.50;99.90;;;13.41;100.00;100950.41;4951523;29;20063;-89
2022/05/17 01:32:16;;;;;;;95.00;14.10;;;15.50;99.90;;;13.40;100.00;100952.31;4952951;29;20043;-89
2022/05/17 01:34:44;;;;;;;89.22;13.20;;;15.40;99.90;;;13.37;100.00;100951.84;4947463;29;20082;-88
2022/05/17 01:37:13;;;;;;;130.65;16.83;;;15.40;99.90;;;13.39;100.00;100953.31;4947581;29;20145;-89
2022/05/17 01:39:44;;;;;;;101.63;15.35;;;15.40;99.90;;;13.37;100.00;100957.31;4945336;29;20035;-90
2022/05/17 01:42:12;;;;;;;53.38;15.70;;;15.40;99.90;;;13.31;100.00;100958.91;4948224;29;20039;-90
2022/05/17 01:44:43;;;;;;;81.35;16.08;;;15.30;99.90;;;13.30;100.00;100963.50;4950046;29;20048;-89
2022/05/17 01:47:11;;;;;;;47.47;12.70;;;15.30;99.90;;;13.24;100.00;100963.41;4939071;29;20039;-89
2022/05/17 01:49:39;;;;;;;25.20;13.15;;;15.30;99.90;;;13.22;100.00;100957.31;4950830;28;20055;-88
2022/05/17 01:52:08;;;;;;;24.77;11.52;;;15.30;99.90;;;13.18;100.00;100959.56;4939412;29;20047;-88
2022/05/17 01:54:35;;;;;;;25.38;10.48;;;15.30;99.90;;;13.15;100.00;100959.09;4945368;29;20135;-88
2022/05/17 01:57:06;;;;;;;28.88;12.05;;;15.30;99.90;;;13.13;100.00;100959.28;4937029;29;20138;-88
2022/05/17 01:59:33;;;;;;;47.03;13.40;;;15.30;99.90;;;13.09;100.00;100949.78;4949202;29;20123;-89
2022/05/17 02:02:01;;;;;;;38.65;13.48;;;15.20;99.90;;;13.05;100.00;100945.72;4949418;28;20043;-88
2022/05/17 02:04:28;;;;;;;54.65;14.02;;;15.20;99.90;;;13.03;100.00;100945.06;4949103;29;20040;-88
2022/05/17 02:06:56;;;;;;;28.77;13.45;;;15.20;99.90;;;13.06;100.00;100951.00;4952717;28;20031;-88
2022/05/17 02:09:23;;;;;;;27.85;12.63;;;15.20;99.90;;;13.06;100.00;100952.88;4951112;29;20067;-88
2022/05/17 02:11:51;;;;;;;22.88;13.45;;;15.10;99.90;;;12.99;100.00;100946.50;4951185;29;20071;-88
2022/05/17 02:14:19;;;;;;;55.65;15.18;;;15.20;99.90;;;12.94;100.00;100951.66;4950094;29;20047;-89
2022/05/17 02:16:47;;;;;;;52.35;13.80;;;15.20;99.90;;;12.97;100.00;100954.88;4950994;28;20070;-89
2022/05/17 02:19:19;;;;;;;62.08;16.27;;;15.10;99.90;;;12.99;100.00;100951.97;4948464;28;20067;-89
2022/05/17 02:21:47;;;;;;;73.80;16.67;;;15.10;99.90;;;13.03;100.00;100953.28;4947924;29;20057;-88
2022/05/17 02:24:15;;;;;;;81.10;16.23;;;15.10;99.90;;;13.02;100.00;100955.16;4951348;28;20039;-89
2022/05/17 02:26:43;;;;;;;64.25;15.38;;;15.10;99.90;;;13.01;100.00;100958.91;4950955;29;20070;-89
2022/05/17 02:29:10;;;;;;;71.05;15.38;;;15.10;99.90;;;12.99;100.00;100961.00;4946281;29;20051;-89
2022/05/17 02:31:39;;;;;;;83.25;14.70;;;15.10;99.90;;;12.96;100.00;100966.00;4946777;29;20097;-90
2022/05/17 02:34:06;;;;;;;48.08;14.85;;;15.10;99.90;;;12.95;100.00;100964.31;4944736;28;20062;-89
2022/05/17 02:36:33;;;;;;;85.25;16.13;;;15.10;99.90;;;12.98;100.00;100964.75;4950383;29;20075;-89
2022/05/17 02:39:00;;;;;;;42.28;13.77;;;15.10;99.90;;;12.96;100.00;100957.78;4951314;28;20146;-88
2022/05/17 02:41:28;;;;;;;43.30;12.82;;;15.10;99.90;;;12.93;100.00;100969.09;4947943;29;20051;-90
2022/05/17 02:43:55;;;;;;;19.20;11.73;;;15.10;99.90;;;12.97;100.00;100963.06;4940202;29;20074;-88
2022/05/17 02:46:22;;;;;;;14.75;11.35;;;15.00;99.90;;;13.01;100.00;100971.75;4946974;29;20054;-88
2022/05/17 02:48:51;;;;;;;14.57;10.77;;;15.00;99.90;;;13.00;100.00;100968.13;4944674;29;20085;-89
2022/05/17 02:51:20;;;;;;;12.05;9.20;;;15.00;99.90;;;12.93;100.00;100971.81;4964449;28;20075;-89
2022/05/17 02:53:48;;;;;;;13.18;9.55;;;15.00;99.90;;;12.89;100.00;100980.41;4949223;29;20134;-89
2022/05/17 02:56:15;;;;;;;16.00;11.45;;;14.90;99.90;;;12.87;100.00;100982.47;4948786;29;20110;-88
2022/05/17 02:58:43;;;;;;;12.70;9.70;;;14.90;99.90;;;12.86;100.00;100978.03;4947525;29;20133;-88
2022/05/17 03:01:11;;;;;;;14.48;10.05;;;14.90;99.90;;;12.79;100.00;100982.56;4950588;29;20122;-89
2022/05/17 03:03:40;;;;;;;11.70;9.73;;;14.90;99.90;;;12.78;100.00;100986.34;4943823;29;20043;-89
2022/05/17 03:06:10;;;;;;;16.35;10.95;;;14.80;99.90;;;12.74;100.00;100987.75;4991464;23;20066;-88
2022/05/17 03:08:38;;;;;;;14.90;10.17;;;14.80;99.90;;;12.66;100.00;100987.81;4978152;28;20125;-89
2022/05/17 03:11:06;;;;;;;12.32;10.30;;;14.80;99.90;;;12.61;100.00;100980.19;4978665;28;20057;-88
2022/05/17 03:13:34;;;;;;;11.18;9.60;;;14.80;99.90;;;12.67;100.00;100986.81;4965155;28;20082;-88
2022/05/17 03:16:01;;;;;;;13.45;10.00;;;14.80;99.90;;;12.69;100.00;100990.19;4982985;28;20120;-89
2022/05/17 03:18:41;;;;;;;;;;;;;;;;;;;;;
2022/05/17 03:21:10;;;;;;;15.32;10.10;;;14.70;99.90;;;12.64;100.00;100987.16;4969245;28;20530;-86
2022/05/17 03:23:38;;;;;;;11.10;9.10;;;14.70;99.90;;;12.64;100.00;100989.88;4987921;28;20302;-89
2022/05/17 03:26:08;;;;;;;12.82;10.10;;;14.70;99.90;;;12.57;100.00;100980.78;4970751;28;20038;-92
2022/05/17 03:28:41;;;;;;;13.98;9.27;;;14.70;99.90;;;12.61;100.00;100995.75;4973969;28;20062;-93
2022/05/17 03:31:13;;;;;;;10.27;8.40;;;14.70;99.90;;;12.61;100.00;101001.22;4985320;28;20050;-93
2022/05/17 03:37:35;;;;;;;12.75;8.85;;;14.70;99.90;;;12.43;100.00;100994.22;4855552;28;20054;-92
2022/05/17 03:40:31;;;;;;;12.18;9.27;;;14.70;99.90;;;12.47;100.00;100990.06;4975156;28;20046;-93
2022/05/17 03:50:59;;;;;;;11.38;9.63;;;14.70;99.90;;;12.49;100.00;100998.09;4987813;28;20130;-94
2022/05/17 03:53:28;;;;;;;18.40;11.32;;;14.70;99.90;;;12.51;100.00;101001.47;4963208;28;20059;-93
2022/05/17 03:56:03;;;;;;;16.85;10.05;;;14.70;99.90;;;12.50;100.00;101003.34;4960378;28;20077;-93
2022/05/17 03:58:35;;;;;;;11.77;10.02;;;14.70;99.90;;;12.55;100.00;101005.53;4945887;28;20054;-93
2022/05/17 04:01:03;;;;;;;16.38;11.13;;;14.70;99.90;;;12.54;100.00;100994.78;4937137;29;20047;-94
2022/05/17 04:03:37;;;;;;;13.45;11.00;;;14.80;99.90;;;12.59;100.00;101003.28;4938447;29;20054;-93
2022/05/17 04:06:21;;;;;;;;;;;;;;;;;;;;;
2022/05/17 04:08:50;;;;;;;13.50;10.23;;;14.80;99.90;;;12.69;100.00;101003.84;4954192;28;20043;-92
2022/05/17 04:11:18;;;;;;;11.05;9.40;;;14.80;99.90;;;12.65;100.00;100997.06;4950486;28;20047;-91
2022/05/17 04:13:46;;;;;;;13.00;10.35;;;14.90;99.90;;;12.73;100.00;101002.44;4945491;28;20109;-92
2022/05/17 04:16:13;;;;;;;11.27;8.90;;;14.90;99.90;;;12.77;100.00;101001.03;4944770;28;20054;-90
2022/05/17 04:18:41;;;;;;;13.82;9.57;;;14.90;99.90;;;12.83;100.00;101003.03;4938482;28;20447;-91
2022/05/17 04:21:09;;;;;;;10.98;9.45;;;14.90;99.90;;;12.86;100.00;100999.91;4943298;28;20046;-92
2022/05/17 04:23:37;;;;;;;11.82;10.07;;;14.90;99.90;;;12.86;100.00;100991.69;4947607;28;20131;-91
2022/05/17 04:26:06;;;;;;;13.80;10.35;;;14.90;99.90;;;12.89;100.00;101005.00;4956222;28;20528;-91
2022/05/17 04:28:34;;;;;;;11.70;9.57;;;15.00;99.90;;;12.91;100.00;100997.47;4967153;28;20046;-92
2022/05/17 04:31:01;;;;;;;17.40;9.65;;;15.10;99.90;;;13.00;100.00;101000.09;4953780;28;20038;-92
2022/05/17 04:33:29;;;;;;;14.57;9.68;;;15.10;99.90;;;13.03;100.00;100994.25;4954037;28;20141;-91
2022/05/17 04:35:56;;;;;;;14.48;10.98;;;15.10;99.90;;;13.07;100.00;101001.03;4946597;28;20045;-91
2022/05/17 04:38:23;;;;;;;13.30;10.38;;;15.20;99.90;;;13.09;100.00;101001.69;4954961;28;20471;-91
2022/05/17 04:40:51;;;;;;;18.48;13.05;;;15.20;99.90;;;13.15;100.00;101003.66;4940201;28;20128;-90
2022/05/17 04:43:19;;;;;;;21.33;12.70;;;15.30;99.90;;;13.18;100.00;100997.81;4963725;28;20063;-90
2022/05/17 04:45:47;;;;;;;14.10;11.07;;;15.30;99.90;;;13.19;100.00;100999.50;4945494;28;20085;-90
2022/05/17 04:48:15;;;;;;;18.55;12.02;;;15.40;99.90;;;13.29;100.00;101002.81;4957657;28;20047;-91
2022/05/17 04:50:42;;;;;;;25.85;14.13;;;15.50;99.90;;;13.39;100.00;101010.75;4949087;29;20051;-90
2022/05/17 04:53:10;;;;;;;17.35;12.82;;;15.50;99.90;;;13.44;100.00;101012.88;4944474;28;20039;-87
2022/05/17 04:55:38;;;;;;;15.77;12.68;;;15.50;99.90;;;13.45;100.00;101015.44;4950741;28;20055;-92
2022/05/17 04:58:05;;;;;;;18.83;13.60;;;15.50;99.90;;;13.44;100.00;101001.94;4946846;28;20055;-92
2022/05/17 05:00:35;;;;;;;24.30;15.77;;;15.60;99.90;;;13.49;100.00;101010.44;4939617;28;20050;-93
2022/05/17 05:03:03;;;;;;;18.65;13.43;;;15.60;99.90;;;13.56;100.00;101010.53;4940257;28;20067;-92
2022/05/17 05:05:31;;;;;;;19.58;12.38;;;15.70;99.90;;;13.69;100.00;101017.00;4967069;28;20093;-92
2022/05/17 05:07:59;;;;;;;21.02;14.18;;;15.70;99.90;;;13.72;100.00;101009.44;4960506;28;20656;-92
2022/05/17 05:10:36;;;;;;;24.48;13.75;;;15.80;99.90;;;13.71;100.00;101008.59;4954945;28;20408;-92
2022/05/17 05:13:15;;;;;;;28.67;15.80;;;15.70;99.90;;;13.74;100.00;101004.63;4959665;28;20043;-92
2022/05/17 05:15:48;;;;;;;20.20;13.40;;;15.80;99.90;;;13.79;100.00;101010.38;4950266;28;20045;-93
2022/05/17 05:18:15;;;;;;;22.92;14.00;;;15.90;99.90;;;13.83;100.00;101006.19;4939639;28;20397;-91
2022/05/17 05:20:43;;;;;;;23.63;14.55;;;16.00;99.90;;;13.86;100.00;101005.81;4950318;28;20039;-93
2022/05/17 05:23:15;;;;;;;22.58;14.77;;;16.10;99.90;;;13.94;100.00;101010.31;4945695;28;20039;-93
2022/05/17 05:26:08;;;;;;;23.25;15.63;;;16.10;99.90;;;14.02;100.00;101016.50;4968986;28;20146;-93
2022/05/17 05:28:36;;;;;;;23.85;14.57;;;16.10;99.90;;;14.10;100.00;101014.69;4909177;29;20043;-92
2022/05/17 05:31:06;;;;;;;25.17;14.32;;;16.20;99.90;;;14.12;100.00;101012.59;4956751;28;20239;-90
2022/05/17 05:33:34;;;;;;;25.40;14.88;;;16.30;99.90;;;14.17;100.00;101012.88;4968335;28;20046;-93
2022/05/17 05:36:09;;;;;;;21.35;13.70;;;16.30;99.90;;;14.22;100.00;101010.38;4942263;28;20043;-91
2022/05/17 05:38:37;;;;;;;22.50;13.18;;;16.40;99.90;;;14.24;100.00;101011.88;4938017;29;20504;-92
2022/05/17 05:41:06;;;;;;;21.20;14.27;;;16.40;99.90;;;14.32;100.00;101021.84;4921059;28;20056;-91
2022/05/17 05:43:33;;;;;;;27.08;15.27;;;16.50;99.90;;;14.38;100.00;101021.06;4962724;28;20130;-89
2022/05/17 05:46:01;;;;;;;20.92;14.05;;;16.50;99.90;;;14.38;100.00;101021.06;4950048;28;20043;-91
2022/05/17 05:48:36;;;;;;;22.83;14.32;;;16.50;99.90;;;14.47;100.00;101025.34;4941962;29;20047;-93
2022/05/17 05:51:05;;;;;;;19.65;13.40;;;16.60;99.90;;;14.55;100.00;101031.75;4940758;28;20055;-90
2022/05/17 05:53:33;;;;;;;23.33;14.05;;;16.60;99.90;;;14.57;100.00;101024.19;4942354;28;20470;-89
2022/05/17 05:56:02;;;;;;;22.90;14.57;;;16.60;99.90;;;14.63;100.00;101034.34;4958318;28;20500;-87
2022/05/17 05:58:30;;;;;;;21.25;14.18;;;16.70;99.90;;;14.62;100.00;101035.38;4955187;28;20047;-87
2022/05/17 06:00:57;;;;;;;24.40;14.27;;;16.70;99.90;;;14.63;100.00;101031.63;4962815;28;20462;-88
2022/05/17 06:03:26;;;;;;;21.27;13.52;;;16.70;99.90;;;14.69;100.00;101039.03;4946459;28;20055;-87
2022/05/17 06:05:55;;;;;;;23.30;15.70;;;16.80;99.90;;;14.74;100.00;101041.19;4944056;28;20066;-87
2022/05/17 06:08:22;;;;;;;20.95;13.02;;;16.80;99.90;;;14.73;100.00;101029.38;4961576;28;20039;-88
2022/05/17 06:10:50;;;;;;;25.95;15.27;;;16.90;99.90;;;14.79;100.00;101039.53;4954579;28;20153;-88
2022/05/17 06:13:18;;;;;;;24.13;14.63;;;16.90;99.90;;;14.82;100.00;101044.59;4958812;28;20042;-88
2022/05/17 06:15:47;;;;;;;22.90;12.98;;;17.00;99.90;;;14.85;100.00;101038.75;4942743;29;20039;-87
2022/05/17 06:18:15;;;;;;;29.42;18.52;;;17.00;99.90;;;14.88;100.00;101044.88;4943209;28;20121;-88
2022/05/17 06:20:42;;;;;;;23.05;14.48;;;17.10;99.90;;;14.90;100.00;101049.09;4964544;28;20037;-87
2022/05/17 06:23:13;;;;;;;36.92;21.27;;;17.10;99.90;;;14.94;100.00;101044.06;4941617;28;20055;-87
2022/05/17 06:25:41;;;;;;;26.95;16.88;;;17.10;99.90;;;14.98;100.00;101054.44;4943121;29;20142;-87
2022/05/17 06:28:08;;;;;;;24.58;15.77;;;17.20;99.90;;;15.01;100.00;101055.91;4959713;28;22194;-88
2022/05/17 06:30:35;;;;;;;27.00;15.88;;;17.10;99.90;;;15.03;100.00;101057.41;4963306;28;20122;-89
2022/05/17 06:33:07;;;;;;;26.95;17.42;;;17.20;99.90;;;15.03;100.00;101060.16;4938602;28;20074;-87
2022/05/17 06:35:41;;;;;;;29.67;19.37;;;17.20;99.90;;;15.08;100.00;101058.69;4950495;28;20073;-87
2022/05/17 06:38:11;;;;;;;24.70;15.23;;;17.20;99.90;;;15.11;100.00;101058.31;4932959;28;20451;-88
2022/05/17 06:40:40;;;;;;;28.30;16.83;;;17.20;99.90;;;15.11;100.00;101058.31;4961641;28;20039;-86
2022/05/17 06:43:07;;;;;;;30.00;18.25;;;17.30;99.90;;;15.18;100.00;101051.81;4957582;28;20114;-87
2022/05/17 06:45:35;;;;;;;40.22;22.10;;;17.40;99.90;;;15.17;100.00;101052.00;4937959;28;20472;-87
2022/05/17 06:48:04;;;;;;;31.08;17.50;;;17.50;99.90;;;15.25;100.00;101060.94;4961966;28;20073;-88
2022/05/17 06:50:32;;;;;;;27.52;16.08;;;17.60;99.90;;;15.28;100.00;101059.66;4942787;28;20146;-87
2022/05/17 06:53:00;;;;;;;34.20;19.00;;;17.60;99.90;;;15.34;100.00;101055.25;4953528;28;20600;-88
2022/05/17 06:55:28;;;;;;;29.35;19.15;;;17.60;99.90;;;15.35;100.00;101068.78;4961330;28;20049;-88
2022/05/17 06:58:02;;;;;;;33.35;20.42;;;17.60;99.90;;;15.36;100.00;101062.22;4964402;28;20522;-88
2022/05/17 07:00:31;;;;;;;25.13;16.02;;;17.70;99.90;;;15.41;100.00;101062.47;4953741;28;20046;-88
2022/05/17 07:02:59;;;;;;;30.98;18.85;;;17.80;99.90;;;15.47;100.00;101058.06;4954912;28;20050;-88
2022/05/17 07:05:26;;;;;;;32.95;18.13;;;17.90;99.90;;;15.54;100.00;101056.22;4958759;28;20535;-87
2022/05/17 07:07:54;;;;;;;25.27;15.80;;;18.00;99.90;;;15.55;100.00;101057.91;4960830;28;20090;-88
2022/05/17 07:13:12;;;;;;;31.33;18.48;;;18.20;99.90;;;15.68;100.00;101059.84;4941493;29;20055;-87
2022/05/17 07:15:42;;;;;;;28.20;16.20;;;18.30;99.90;;;15.69;100.00;101055.22;4959029;28;20106;-87
2022/05/17 07:18:12;;;;;;;25.88;16.00;;;18.40;99.90;;;15.75;100.00;101060.75;4949117;28;20047;-87
2022/05/17 07:20:40;;;;;;;28.27;14.70;;;18.40;99.90;;;15.78;100.00;101070.47;4965017;28;20058;-87
2022/05/17 07:23:08;;;;;;;30.15;17.58;;;18.50;99.90;;;15.88;100.00;101059.97;4948476;28;20046;-87
2022/05/17 07:25:36;;;;;;;30.90;15.07;;;18.60;99.90;;;15.90;100.00;101066.09;4962639;28;20045;-88
2022/05/17 07:28:07;;;;;;;24.13;14.32;;;18.60;99.90;;;15.92;100.00;101077.72;4957392;28;20046;-88
2022/05/17 07:30:35;;;;;;;25.20;15.93;;;18.60;99.90;;;15.90;100.00;101079.81;4936061;28;20130;-87
2022/05/17 07:33:02;;;;;;;30.75;15.82;;;18.60;99.90;;;15.89;100.00;101082.78;4956348;28;20035;-88
2022/05/17 07:35:31;;;;;;;24.20;15.70;;;18.50;99.90;;;15.94;100.00;101081.09;4944440;28;20070;-88
2022/05/17 07:37:58;;;;;;;25.25;15.73;;;18.50;99.90;;;16.00;100.00;101080.28;4953480;28;20038;-87
2022/05/17 07:40:26;;;;;;;36.63;19.80;;;18.60;99.90;;;15.99;100.00;101081.34;4954326;28;20051;-87
2022/05/17 07:42:54;;;;;;;29.13;16.67;;;18.70;99.90;;;16.02;100.00;101085.56;4951763;29;20117;-87
2022/05/17 07:45:24;;;;;;;25.35;16.50;;;18.70;99.90;;;16.03;100.00;101090.84;4934404;29;20098;-88
2022/05/17 07:47:51;;;;;;;28.02;17.13;;;18.60;99.90;;;16.06;100.00;101089.56;4917339;29;20075;-87
2022/05/17 07:50:18;;;;;;;35.08;17.40;;;18.60;99.90;;;16.05;100.00;101082.41;4948087;28;20206;-88
2022/05/17 07:52:46;;;;;;;23.30;14.63;;;18.60;99.90;;;16.05;100.00;101084.28;4962711;28;20118;-87
2022/05/17 07:55:15;;;;;;;26.85;16.08;;;18.60;99.90;;;16.08;100.00;101081.13;4970657;28;20082;-90
2022/05/17 07:57:43;;;;;;;27.13;15.02;;;18.60;99.90;;;16.08;100.00;101092.97;4967499;28;20047;-87
2022/05/17 08:00:13;;;;;;;24.15;14.98;;;18.50;99.90;;;16.05;100.00;101084.28;4951443;28;20043;-89
2022/05/17 08:02:42;;;;;;;24.43;16.07;;;18.50;99.90;;;16.02;100.00;101100.13;4960698;28;20051;-87
2022/05/17 08:05:11;;;;;;;25.38;15.45;;;18.50;99.90;;;16.08;100.00;101092.13;4950305;28;20334;-87
2022/05/17 08:07:39;;;;;;;30.00;14.73;;;18.40;99.90;;;16.07;100.00;101093.16;4937910;28;20400;-85
2022/05/17 08:10:08;;;;;;;26.67;15.10;;;18.40;99.90;;;16.06;100.00;101106.06;4955887;28;20122;-85
2022/05/17 08:12:35;;;;;;;24.50;13.85;;;18.40;99.90;;;16.13;100.00;101100.59;4951710;29;20051;-85
2022/05/17 08:15:04;;;;;;;32.17;15.63;;;18.50;99.90;;;16.14;100.00;101100.38;4951445;28;20078;-86
2022/05/17 08:17:31;;;;;;;28.60;15.93;;;18.70;99.90;;;16.17;100.00;101107.38;4936152;28;20134;-87
2022/05/17 08:20:00;;;;;;;23.25;15.10;;;18.70;99.90;;;16.23;100.00;101112.03;4939647;28;20405;-87
2022/05/17 08:22:27;;;;;;;25.85;15.77;;;18.70;99.90;;;16.26;100.00;101116.25;4934072;29;20487;-86
2022/05/17 08:27:39;;;;;;;24.70;14.45;;;18.80;99.90;;;16.31;100.00;101114.56;4937317;28;20043;-86
2022/05/17 08:30:14;;;;;;;29.60;14.63;;;18.90;99.90;;;16.34;100.00;101119.66;4970408;28;20053;-87
2022/05/17 08:35:41;;;;;;;27.92;15.23;;;18.90;99.90;;;16.36;100.00;101114.78;4956910;28;20057;-86
2022/05/17 08:38:09;;;;;;;27.63;14.32;;;18.90;99.90;;;16.37;100.00;101112.88;4958953;28;20076;-87
2022/05/17 08:40:49;;;;;;;23.67;14.57;;;18.90;99.90;;;16.37;100.00;101113.75;4936685;28;20043;-89
2022/05/17 08:43:27;;;;;;;28.00;14.07;;;18.90;99.90;;;16.38;100.00;101123.66;4967798;28;20106;-87
2022/05/17 08:46:39;;;;;;;26.67;13.38;;;18.90;99.90;;;16.38;100.00;101118.19;4957821;28;20054;-89
2022/05/17 08:49:19;;;;;;;30.45;15.30;;;18.90;99.90;;;16.40;100.00;101112.47;4941550;28;20039;-87
2022/05/17 08:51:54;;;;;;;26.58;13.73;;;18.90;99.90;;;16.44;100.00;101124.75;4950294;28;20089;-88
2022/05/17 08:54:37;;;;;;;27.48;13.25;;;18.90;99.90;;;16.42;100.00;101124.09;4947609;28;20056;-87
2022/05/17 08:57:15;;;;;;;23.63;12.50;;;18.80;99.90;;;16.43;100.00;101125.81;4942510;28;20130;-88
2022/05/17 08:59:43;;;;;;;25.50;13.18;;;18.80;99.90;;;16.42;100.00;101124.94;4970195;28;20039;-87
2022/05/17 09:02:18;;;;;;;24.63;13.38;;;18.80;99.90;;;16.44;100.00;101134.91;4950821;29;20399;-86
2022/05/17 09:05:07;;;;;;;25.20;12.10;;;18.80;99.90;;;16.44;100.00;101129.41;4951105;22;20067;-87
2022/05/17 09:07:48;;;;;;;25.40;13.48;;;18.90;99.90;;;16.44;100.00;101132.16;4954372;28;20046;-88
2022/05/17 09:10:37;;;;;;;20.27;12.88;;;18.80;99.90;;;16.46;100.00;101127.28;4973677;28;20047;-88
2022/05/17 09:13:14;;;;;;;24.60;13.13;;;18.90;99.90;;;16.47;100.00;101129.84;4954465;28;20129;-88
2022/05/17 09:15:41;;;;;;;26.70;12.75;;;18.90;99.90;;;16.49;100.00;101135.13;4973750;28;20137;-87
2022/05/17 09:18:13;;;;;;;24.85;13.45;;;18.90;99.90;;;16.50;100.00;101123.06;4973343;28;20049;-88
2022/05/17 09:20:41;;;;;;;21.85;12.98;;;19.00;99.90;;;16.51;100.00;101125.59;4949967;29;20130;-89
2022/05/17 09:23:10;;;;;;;25.63;13.55;;;19.00;99.90;;;16.52;100.00;101116.28;4957377;28;20110;-89
2022/05/17 09:26:06;;;;;;;25.02;12.80;;;19.00;99.90;;;16.56;100.00;101122.22;4943968;28;20138;-88
2022/05/17 09:28:49;;;;;;;25.90;12.45;;;19.00;99.90;;;16.57;100.00;101126.66;4958550;28;20125;-88
2022/05/17 09:31:28;;;;;;;20.10;12.73;;;19.00;99.90;;;16.60;100.00;101126.22;4960857;28;20082;-89
2022/05/17 09:33:58;;;;;;;25.25;12.77;;;19.10;99.90;;;16.63;100.00;101128.56;4959398;28;20039;-89
2022/05/17 09:36:34;;;;;;;22.15;12.38;;;19.20;99.90;;;16.71;100.00;101130.28;4953805;29;20559;-88
2022/05/17 09:39:03;;;;;;;25.75;12.50;;;19.30;99.90;;;16.78;100.00;101126.47;4953379;28;20090;-89
2022/05/17 09:41:35;;;;;;;24.10;12.07;;;19.50;99.90;;;16.85;100.00;101128.41;4941341;28;20074;-88
2022/05/17 09:44:06;;;;;;;21.10;11.52;;;19.60;99.90;;;16.94;100.00;101127.13;4940888;28;20101;-88
2022/05/17 09:46:37;;;;;;;22.02;12.95;;;19.70;99.90;;;17.20;100.00;101123.53;4943075;29;20809;-89
2022/05/17 09:55:23;;;;;;;17.35;9.02;;;19.80;99.90;;;17.06;100.00;101124.59;4956480;28;20047;-88
2022/05/17 09:58:03;;;;;;;15.20;9.20;;;19.70;99.90;;;17.02;100.00;101126.94;4946932;28;20046;-89
2022/05/17 10:00:40;;;;;;;15.77;7.70;;;19.70;99.90;;;17.03;100.00;101122.28;4952328;28;20066;-88
2022/05/17 10:03:29;;;;;;;17.75;8.90;;;19.60;99.90;;;17.12;100.00;101121.84;4952731;28;20135;-88
2022/05/17 10:06:02;;;;;;;15.00;7.35;;;19.70;99.90;;;17.08;100.00;101128.84;4950392;28;20039;-88
2022/05/17 10:08:39;;;;;;;19.55;8.05;;;19.70;99.90;;;17.06;100.00;101127.34;4957753;28;20074;-89
2022/05/17 10:11:20;;;;;;;18.98;8.70;;;19.70;99.90;;;17.03;100.00;101128.63;4952803;28;20050;-88
2022/05/17 10:14:01;;;;;;;15.52;8.13;;;19.60;99.90;;;17.05;100.00;101126.50;4952059;28;20102;-89
2022/05/17 10:16:35;;;;;;;17.55;7.93;;;19.60;99.90;;;17.04;100.00;101122.06;4953609;28;20043;-88
2022/05/17 10:19:07;;;;;;;12.45;6.97;;;19.70;99.90;;;17.06;100.00;101122.72;4951983;28;20094;-88
2022/05/17 10:21:43;;;;;;;14.07;6.45;;;19.70;99.90;;;17.05;100.00;101123.75;4957782;28;20040;-88
2022/05/17 10:24:22;;;;;;;17.98;6.97;;;19.70;99.90;;;17.07;100.00;101123.53;4950042;28;20130;-88
2022/05/17 10:27:00;;;;;;;14.85;6.38;;;19.60;99.90;;;17.05;100.00;101125.66;4943535;29;20035;-88
2022/05/17 10:29:36;;;;;;;13.70;6.18;;;19.60;99.90;;;17.05;100.00;101122.91;4935296;29;20051;-88
2022/05/17 10:32:10;;;;;;;17.35;5.95;;;19.60;99.90;;;17.06;100.00;101121.84;4949919;28;20530;-88
2022/05/17 10:34:47;;;;;;;15.73;6.15;;;19.60;99.90;;;17.06;100.00;101114.47;4950987;28;20075;-89
2022/05/17 10:37:19;;;;;;;18.35;6.30;;;19.70;99.90;;;17.10;100.00;101112.13;4948737;28;20102;-89
2022/05/17 10:39:55;;;;;;;13.30;5.57;;;19.70;99.90;;;17.11;100.00;101114.63;4946111;28;20043;-90
2022/05/17 10:42:24;;;;;;;16.30;5.63;;;19.70;99.90;;;17.11;100.00;101111.06;4959965;28;20120;-89
2022/05/17 10:44:55;;;;;;;14.77;5.82;;;19.70;99.90;;;17.14;100.00;101113.38;4952384;29;20118;-88